createdAt,value
2022-11-15T00:00:14.598Z,10.70
2022-11-15T00:03:24.585Z,10.60
2022-11-15T00:06:29.354Z,10.60
2022-11-15T00:09:34.125Z,10.50
2022-11-15T00:12:39.091Z,10.50
2022-11-15T00:15:43.650Z,10.50
2022-11-15T00:18:50.801Z,10.40
2022-11-15T00:21:56.325Z,10.40
2022-11-15T00:25:00.965Z,10.40
2022-11-15T00:28:05.763Z,10.30
2022-11-15T00:31:11.751Z,10.30
2022-11-15T00:34:16.559Z,10.30
2022-11-15T00:37:21.505Z,10.20
2022-11-15T00:40:26.425Z,10.20
2022-11-15T00:43:32.319Z,10.20
2022-11-15T00:46:38.346Z,10.20
2022-11-15T00:49:43.447Z,10.20
2022-11-15T00:52:49.125Z,10.20
2022-11-15T00:55:54.064Z,10.20
2022-11-15T00:58:58.963Z,10.30
2022-11-15T01:02:03.944Z,10.30
2022-11-15T01:05:09.309Z,10.30
2022-11-15T01:08:17.538Z,10.30
2022-11-15T01:11:22.158Z,10.30
2022-11-15T01:14:26.632Z,10.30
2022-11-15T01:17:32.288Z,10.30
2022-11-15T01:20:42.888Z,10.40
2022-11-15T01:23:47.540Z,10.30
2022-11-15T01:26:52.327Z,10.30
2022-11-15T01:29:56.865Z,10.30
2022-11-15T01:33:01.352Z,10.30
2022-11-15T01:36:06.440Z,10.30
2022-11-15T01:39:10.938Z,10.30
2022-11-15T01:42:16.281Z,10.30
2022-11-15T01:45:20.749Z,10.30
2022-11-15T01:48:33.029Z,10.20
2022-11-15T01:51:38.062Z,10.20
2022-11-15T01:54:43.685Z,10.20
2022-11-15T01:57:56.324Z,10.10
2022-11-15T02:01:01.027Z,10.10
2022-11-15T02:04:13.388Z,10.00
2022-11-15T02:07:20.546Z,10.00
2022-11-15T02:10:25.932Z,10.00
2022-11-15T02:13:30.671Z,10.00
2022-11-15T02:16:41.926Z,10.00
2022-11-15T02:20:05.205Z,10.00
2022-11-15T02:23:33.748Z,10.00
2022-11-15T02:27:02.865Z,10.10
2022-11-15T02:30:24.218Z,10.10
2022-11-15T02:33:47.807Z,10.10
2022-11-15T02:37:14.122Z,10.20
2022-11-15T02:40:47.817Z,10.20
2022-11-15T02:44:00.870Z,10.20
2022-11-15T02:47:14.701Z,10.10
2022-11-15T02:50:24.360Z,10.10
2022-11-15T02:53:29.597Z,10.10
2022-11-15T02:56:34.544Z,10.10
2022-11-15T03:00:02.600Z,10.10
2022-11-15T03:03:25.671Z,10.00
2022-11-15T03:06:30.138Z,10.00
2022-11-15T03:09:51.345Z,10.00
2022-11-15T03:13:00.759Z,10.10
2022-11-15T03:16:12.556Z,10.20
2022-11-15T03:19:21.648Z,10.20
2022-11-15T03:22:30.195Z,10.30
2022-11-15T03:25:39.314Z,10.40
2022-11-15T03:28:54.072Z,10.40
2022-11-15T03:32:04.283Z,10.40
2022-11-15T03:35:12.747Z,10.50
2022-11-15T03:38:30.967Z,10.50
2022-11-15T03:41:51.691Z,10.60
2022-11-15T03:45:24.100Z,10.60
2022-11-15T03:48:45.935Z,10.70
2022-11-15T03:51:50.532Z,10.70
2022-11-15T03:54:57.456Z,10.70
2022-11-15T03:58:02.299Z,10.70
2022-11-15T04:01:07.435Z,10.70
2022-11-15T04:04:12.314Z,10.80
2022-11-15T04:07:17.356Z,10.80
2022-11-15T04:10:22.961Z,10.80
2022-11-15T04:13:27.380Z,10.80
2022-11-15T04:16:32.264Z,10.80
2022-11-15T04:19:55.649Z,10.90
2022-11-15T04:23:20.021Z,10.90
2022-11-15T04:26:24.978Z,10.90
2022-11-15T04:29:36.346Z,10.90
2022-11-15T04:32:40.810Z,10.90
2022-11-15T04:36:05.787Z,10.90
2022-11-15T04:39:11.110Z,11.00
2022-11-15T04:42:15.771Z,11.00
2022-11-15T04:45:20.604Z,11.10
2022-11-15T04:48:25.026Z,11.10
2022-11-15T04:51:30.025Z,11.20
2022-11-15T04:54:34.888Z,11.30
2022-11-15T04:57:39.771Z,11.30
2022-11-15T05:00:44.386Z,11.40
2022-11-15T05:04:07.488Z,11.50
2022-11-15T05:07:12.722Z,11.60
2022-11-15T05:10:18.285Z,11.70
2022-11-15T05:13:32.158Z,11.70
2022-11-15T05:16:37.478Z,11.80
2022-11-15T05:19:41.927Z,11.80
2022-11-15T05:22:46.750Z,11.90
2022-11-15T05:25:51.755Z,11.90
2022-11-15T05:28:58.939Z,12.00
2022-11-15T05:32:07.043Z,12.10
2022-11-15T05:35:20.671Z,12.10
2022-11-15T05:38:25.378Z,12.10
2022-11-15T05:41:38.384Z,12.10
2022-11-15T05:44:48.608Z,12.20
2022-11-15T05:47:58.222Z,12.20
2022-11-15T05:51:05.786Z,12.20
2022-11-15T05:54:12.186Z,12.20
2022-11-15T05:57:17.220Z,12.20
2022-11-15T06:00:22.313Z,12.20
2022-11-15T06:03:27.369Z,12.20
2022-11-15T06:06:32.420Z,12.20
2022-11-15T06:09:36.805Z,12.30
2022-11-15T06:12:41.666Z,12.20
2022-11-15T06:15:46.557Z,12.30
2022-11-15T06:18:51.497Z,12.20
2022-11-15T06:21:56.473Z,12.20
2022-11-15T06:25:05.246Z,12.20
2022-11-15T06:28:10.518Z,12.20
2022-11-15T06:31:15.129Z,12.20
2022-11-15T06:34:19.863Z,12.20
2022-11-15T06:37:24.786Z,12.30
2022-11-15T06:40:29.648Z,12.30
2022-11-15T06:43:35.359Z,12.30
2022-11-15T06:46:40.212Z,12.30
2022-11-15T06:49:44.635Z,12.30
2022-11-15T06:52:49.127Z,12.30
2022-11-15T06:55:55.709Z,12.40
2022-11-15T06:59:00.956Z,12.30
2022-11-15T07:02:05.922Z,12.30
2022-11-15T07:05:11.318Z,12.30
2022-11-15T07:08:16.046Z,12.30
2022-11-15T07:11:20.654Z,12.20
2022-11-15T07:14:25.709Z,12.20
2022-11-15T07:17:30.395Z,12.20
2022-11-15T07:20:35.304Z,12.30
2022-11-15T07:23:40.470Z,12.20
2022-11-15T07:26:46.350Z,12.20
2022-11-15T07:29:50.967Z,12.10
2022-11-15T07:32:56.594Z,12.20
2022-11-15T07:36:06.524Z,12.20
2022-11-15T07:39:13.108Z,12.20
2022-11-15T07:42:36.258Z,12.20
2022-11-15T07:45:43.142Z,12.20
2022-11-15T07:48:47.948Z,12.10
2022-11-15T07:51:52.759Z,12.10
2022-11-15T07:54:57.603Z,12.10
2022-11-15T07:58:06.569Z,12.00
2022-11-15T08:01:11.725Z,11.90
2022-11-15T08:04:17.630Z,11.90
2022-11-15T08:07:22.284Z,11.90
2022-11-15T08:10:28.499Z,11.80
2022-11-15T08:13:33.747Z,11.80
2022-11-15T08:16:38.664Z,11.80
2022-11-15T08:19:43.556Z,11.80
2022-11-15T08:22:48.775Z,11.80
2022-11-15T08:25:53.700Z,11.70
2022-11-15T08:28:58.662Z,11.70
2022-11-15T08:32:03.562Z,11.80
2022-11-15T08:35:09.443Z,11.80
2022-11-15T08:38:14.177Z,11.80
2022-11-15T08:41:29.162Z,11.80
2022-11-15T08:44:33.607Z,11.80
2022-11-15T08:47:38.263Z,11.80
2022-11-15T08:50:45.911Z,11.80
2022-11-15T08:53:54.439Z,11.80
2022-11-15T08:56:59.379Z,11.90
2022-11-15T09:00:05.448Z,11.90
2022-11-15T09:03:10.638Z,11.90
2022-11-15T09:06:15.860Z,12.00
2022-11-15T09:09:20.604Z,12.00
2022-11-15T09:12:26.619Z,12.10
2022-11-15T09:15:31.194Z,12.10
2022-11-15T09:18:36.231Z,12.10
2022-11-15T09:21:41.223Z,12.20
2022-11-15T09:24:45.971Z,12.20
2022-11-15T09:27:50.688Z,12.20
2022-11-15T09:31:00.296Z,12.20
2022-11-15T09:34:07.400Z,12.20
2022-11-15T09:37:13.487Z,12.30
2022-11-15T09:40:21.377Z,12.30
2022-11-15T09:43:57.747Z,12.20
2022-11-15T09:47:20.909Z,12.20
2022-11-15T09:50:42.723Z,12.20
2022-11-15T09:54:24.114Z,12.20
2022-11-15T09:56:57.239Z,12.20
2022-11-15T09:59:46.811Z,12.20
2022-11-15T10:02:55.024Z,12.20
2022-11-15T10:05:49.417Z,12.20
2022-11-15T10:08:46.331Z,12.20
2022-11-15T10:11:38.115Z,12.30
2022-11-15T10:14:28.683Z,12.30
2022-11-15T10:17:51.569Z,12.30
2022-11-15T10:20:53.861Z,12.30
2022-11-15T10:23:39.990Z,12.30
2022-11-15T10:26:26.038Z,12.30
2022-11-15T10:29:11.897Z,12.30
2022-11-15T10:31:57.828Z,12.30
2022-11-15T10:34:44.275Z,12.40
2022-11-15T10:37:32.372Z,12.40
2022-11-15T10:40:23.833Z,12.40
2022-11-15T10:43:18.289Z,12.40
2022-11-15T10:46:45.134Z,12.40
2022-11-15T10:49:31.649Z,12.40
2022-11-15T10:52:23.132Z,12.40
2022-11-15T10:55:12.422Z,12.50
2022-11-15T10:58:20.267Z,12.50
2022-11-15T11:01:27.261Z,12.50
2022-11-15T11:04:13.950Z,12.50
2022-11-15T11:07:01.350Z,12.60
2022-11-15T11:10:50.506Z,12.60
2022-11-15T11:13:39.601Z,12.60
2022-11-15T11:16:43.397Z,12.60
2022-11-15T11:19:38.564Z,12.60
2022-11-15T11:22:45.526Z,12.60
2022-11-15T11:25:50.319Z,12.60
2022-11-15T11:29:14.858Z,12.70
2022-11-15T11:32:27.620Z,12.70
2022-11-15T11:35:28.706Z,12.70
2022-11-15T11:38:54.963Z,12.70
2022-11-15T11:41:56.830Z,12.70
2022-11-15T11:44:57.296Z,12.60
2022-11-15T11:47:59.310Z,12.60
2022-11-15T11:50:46.627Z,12.60
2022-11-15T11:53:40.908Z,12.60
2022-11-15T11:56:34.422Z,12.60
2022-11-15T11:59:32.287Z,12.60
2022-11-15T12:02:29.623Z,12.60
2022-11-15T12:05:37.902Z,12.60
2022-11-15T12:08:31.537Z,12.60
2022-11-15T12:11:46.772Z,12.60
2022-11-15T12:14:56.398Z,12.60
2022-11-15T12:17:43.042Z,12.60
2022-11-15T12:20:34.829Z,12.60
2022-11-15T12:23:29.707Z,12.60
2022-11-15T12:26:25.472Z,12.60
2022-11-15T12:29:21.433Z,12.60
2022-11-15T12:32:30.585Z,12.60
2022-11-15T12:35:34.176Z,12.70
2022-11-15T12:38:55.660Z,12.70
2022-11-15T12:42:06.178Z,12.70
2022-11-15T12:44:52.787Z,12.70
2022-11-15T12:47:38.970Z,12.70
2022-11-15T12:50:59.049Z,12.70
2022-11-15T12:53:45.762Z,12.80
2022-11-15T12:56:32.547Z,12.80
2022-11-15T12:59:59.839Z,12.80
2022-11-15T13:02:54.862Z,12.80
2022-11-15T13:05:40.728Z,12.80
2022-11-15T13:08:48.182Z,12.90
2022-11-15T13:11:47.235Z,12.90
2022-11-15T13:14:42.506Z,12.90
2022-11-15T13:17:44.685Z,12.90
2022-11-15T13:20:33.145Z,12.90
2022-11-15T13:23:19.282Z,12.90
2022-11-15T13:26:14.979Z,12.90
2022-11-15T13:29:02.554Z,13.10
2022-11-15T13:31:49.190Z,13.10
2022-11-15T13:34:51.013Z,13.10
2022-11-15T13:37:37.864Z,13.20
2022-11-15T13:40:31.524Z,13.30
2022-11-15T13:43:24.999Z,13.40
2022-11-15T13:46:16.574Z,13.60
2022-11-15T13:49:14.494Z,13.70
2022-11-15T13:52:03.639Z,13.80
2022-11-15T13:55:06.893Z,13.80
2022-11-15T13:57:57.965Z,13.90
2022-11-15T14:00:45.835Z,13.90
2022-11-15T14:03:42.194Z,13.90
2022-11-15T14:06:30.623Z,13.90
2022-11-15T14:09:38.747Z,14.00
2022-11-15T14:12:24.538Z,14.00
2022-11-15T14:15:49.066Z,14.10
2022-11-15T14:18:47.339Z,14.20
2022-11-15T14:21:34.546Z,14.30
2022-11-15T14:24:22.505Z,14.40
2022-11-15T14:27:37.815Z,14.40
2022-11-15T14:30:23.888Z,14.50
2022-11-15T14:33:39.888Z,14.50
2022-11-15T14:36:26.093Z,14.40
2022-11-15T14:39:12.455Z,14.40
2022-11-15T14:41:58.629Z,14.30
2022-11-15T14:44:46.211Z,14.30
2022-11-15T14:47:32.499Z,14.30
2022-11-15T14:50:23.967Z,14.30
2022-11-15T14:53:13.996Z,14.20
2022-11-15T14:56:00.190Z,14.20
2022-11-15T14:58:49.007Z,14.20
2022-11-15T15:01:35.145Z,14.10
2022-11-15T15:04:21.037Z,14.00
2022-11-15T15:07:09.530Z,13.80
2022-11-15T15:10:11.302Z,13.70
2022-11-15T15:13:01.344Z,13.60
2022-11-15T15:15:48.161Z,13.60
2022-11-15T15:18:34.353Z,13.50
2022-11-15T15:21:24.010Z,13.40
2022-11-15T15:24:18.410Z,13.40
2022-11-15T15:27:04.959Z,13.30
2022-11-15T15:29:53.846Z,13.20
2022-11-15T15:32:40.595Z,13.10
2022-11-15T15:35:32.150Z,12.90
2022-11-15T15:38:17.980Z,12.90
2022-11-15T15:41:04.504Z,12.80
2022-11-15T15:43:50.696Z,12.70
2022-11-15T15:46:36.591Z,12.60
2022-11-15T15:49:22.652Z,12.50
2022-11-15T15:52:08.654Z,12.50
2022-11-15T15:55:02.875Z,12.40
2022-11-15T15:57:49.207Z,12.30
2022-11-15T16:00:35.443Z,12.30
2022-11-15T16:03:21.373Z,12.20
2022-11-15T16:06:47.527Z,12.10
2022-11-15T16:09:51.983Z,12.10
2022-11-15T16:12:37.874Z,12.00
2022-11-15T16:15:27.039Z,12.00
2022-11-15T16:18:17.873Z,11.90
2022-11-15T16:21:04.017Z,11.90
2022-11-15T16:23:49.974Z,11.90
2022-11-15T16:26:37.127Z,11.90
2022-11-15T16:29:23.476Z,11.90
2022-11-15T16:32:09.751Z,11.90
2022-11-15T16:34:57.021Z,11.80
2022-11-15T16:37:45.840Z,11.80
2022-11-15T16:40:34.375Z,11.80
2022-11-15T16:43:20.644Z,11.70
2022-11-15T16:46:24.090Z,11.70
2022-11-15T16:49:15.770Z,11.70
2022-11-15T16:52:02.220Z,11.60
2022-11-15T16:54:48.083Z,11.60
2022-11-15T16:57:34.074Z,11.60
2022-11-15T17:00:20.376Z,11.60
2022-11-15T17:03:07.215Z,11.50
2022-11-15T17:05:57.788Z,11.50
2022-11-15T17:08:44.541Z,11.50
2022-11-15T17:11:30.404Z,11.40
2022-11-15T17:14:17.318Z,11.50
2022-11-15T17:17:03.305Z,11.40
2022-11-15T17:19:49.182Z,11.40
2022-11-15T17:22:37.862Z,11.30
2022-11-15T17:25:23.778Z,11.30
2022-11-15T17:28:13.122Z,11.30
2022-11-15T17:30:59.832Z,11.20
2022-11-15T17:33:45.811Z,11.30
2022-11-15T17:36:31.716Z,11.40
2022-11-15T17:39:19.556Z,11.40
2022-11-15T17:42:05.645Z,11.40
2022-11-15T17:44:51.514Z,11.50
2022-11-15T17:47:37.701Z,11.50
2022-11-15T17:50:23.498Z,11.50
2022-11-15T17:53:09.871Z,11.50
2022-11-15T17:56:00.972Z,11.50
2022-11-15T17:58:57.542Z,11.50
2022-11-15T18:01:43.393Z,11.50
2022-11-15T18:04:29.437Z,11.50
2022-11-15T18:07:15.419Z,11.50
2022-11-15T18:10:02.851Z,11.50
2022-11-15T18:12:48.884Z,11.50
2022-11-15T18:15:34.836Z,11.40
2022-11-15T18:18:20.982Z,11.40
2022-11-15T18:21:10.901Z,11.40
2022-11-15T18:24:01.013Z,11.40
2022-11-15T18:26:47.152Z,11.40
2022-11-15T18:29:35.526Z,11.30
2022-11-15T18:32:24.775Z,11.20
2022-11-15T18:35:10.915Z,11.20
2022-11-15T18:37:56.838Z,11.20
2022-11-15T18:40:42.868Z,11.10
2022-11-15T18:43:29.208Z,11.10
2022-11-15T18:46:17.048Z,11.00
2022-11-15T18:49:03.325Z,10.90
2022-11-15T18:51:49.364Z,10.90
2022-11-15T18:54:35.565Z,10.80
2022-11-15T18:57:21.513Z,10.80
2022-11-15T19:00:09.078Z,10.70
2022-11-15T19:02:55.249Z,10.70
2022-11-15T19:05:41.096Z,10.70
2022-11-15T19:08:27.962Z,10.60
2022-11-15T19:11:23.935Z,10.60
2022-11-15T19:14:18.074Z,10.60
2022-11-15T19:17:04.253Z,10.50
2022-11-15T19:19:50.550Z,10.50
2022-11-15T19:22:36.650Z,10.40
2022-11-15T19:25:25.092Z,10.30
2022-11-15T19:28:11.829Z,10.20
2022-11-15T19:31:15.619Z,10.10
2022-11-15T19:34:04.606Z,10.00
2022-11-15T19:36:51.205Z,9.90
2022-11-15T19:39:41.081Z,9.90
2022-11-15T19:42:27.348Z,9.90
2022-11-15T19:45:13.221Z,9.80
2022-11-15T19:47:59.534Z,9.80
2022-11-15T19:50:45.538Z,9.80
2022-11-15T19:53:35.185Z,9.80
2022-11-15T19:56:22.406Z,9.80
2022-11-15T19:59:08.968Z,9.70
2022-11-15T20:01:55.250Z,9.70
2022-11-15T20:04:41.111Z,9.70
2022-11-15T20:07:27.102Z,9.80
2022-11-15T20:10:15.681Z,9.80
2022-11-15T20:13:05.797Z,9.70
2022-11-15T20:15:52.029Z,9.70
2022-11-15T20:18:38.120Z,9.70
2022-11-15T20:21:24.212Z,9.70
2022-11-15T20:24:10.302Z,9.70
2022-11-15T20:26:57.742Z,9.60
2022-11-15T20:29:45.133Z,9.60
2022-11-15T20:32:31.482Z,9.60
2022-11-15T20:35:17.759Z,9.60
2022-11-15T20:38:03.605Z,9.50
2022-11-15T20:40:52.730Z,9.50
2022-11-15T20:43:43.491Z,9.50
2022-11-15T20:46:29.774Z,9.40
2022-11-15T20:49:15.634Z,9.30
2022-11-15T20:52:01.562Z,9.20
2022-11-15T20:54:47.474Z,9.20
2022-11-15T20:57:35.579Z,9.20
2022-11-15T21:00:24.950Z,9.10
2022-11-15T21:03:14.040Z,9.10
2022-11-15T21:05:59.950Z,9.10
2022-11-15T21:09:04.400Z,9.10
2022-11-15T21:12:08.858Z,9.10
2022-11-15T21:14:54.711Z,9.10
2022-11-15T21:17:40.706Z,9.10
2022-11-15T21:20:27.598Z,9.10
2022-11-15T21:23:13.932Z,9.10
2022-11-15T21:26:00.054Z,9.10
2022-11-15T21:28:45.835Z,9.10
2022-11-15T21:31:32.065Z,9.10
2022-11-15T21:34:18.470Z,9.10
2022-11-15T21:37:05.596Z,9.20
2022-11-15T21:39:51.785Z,9.20
2022-11-15T21:42:37.796Z,9.20
2022-11-15T21:45:23.779Z,9.20
2022-11-15T21:48:09.664Z,9.20
2022-11-15T21:51:04.290Z,9.20
2022-11-15T21:53:50.341Z,9.20
2022-11-15T21:56:36.910Z,9.30
2022-11-15T21:59:23.219Z,9.20
2022-11-15T22:02:15.290Z,9.20
2022-11-15T22:05:01.515Z,9.20
2022-11-15T22:07:47.684Z,9.20
2022-11-15T22:10:33.714Z,9.10
2022-11-15T22:13:20.442Z,9.10
2022-11-15T22:16:10.736Z,9.10
2022-11-15T22:18:57.305Z,9.00
2022-11-15T22:21:43.271Z,9.00
2022-11-15T22:24:29.790Z,8.90
2022-11-15T22:27:15.987Z,8.90
2022-11-15T22:30:01.907Z,8.90
2022-11-15T22:32:47.750Z,8.90
2022-11-15T22:35:38.190Z,8.90
2022-11-15T22:38:24.934Z,8.90
2022-11-15T22:41:12.280Z,8.90
2022-11-15T22:43:58.768Z,8.90
2022-11-15T22:46:44.898Z,8.90
2022-11-15T22:49:30.912Z,8.90
2022-11-15T22:52:17.906Z,8.90
2022-11-15T22:55:04.542Z,8.90
2022-11-15T22:57:50.561Z,8.90
2022-11-15T23:00:37.346Z,9.00
2022-11-15T23:03:24.430Z,9.00
2022-11-15T23:06:12.356Z,9.10
2022-11-15T23:08:58.289Z,9.20
2022-11-15T23:12:02.964Z,9.20
2022-11-15T23:14:49.262Z,9.20
2022-11-15T23:17:35.452Z,9.30
2022-11-15T23:20:41.909Z,9.30
2022-11-15T23:23:28.259Z,9.30
2022-11-15T23:26:14.140Z,9.30
2022-11-15T23:29:00.271Z,9.30
2022-11-15T23:32:05.250Z,9.30
2022-11-15T23:34:51.043Z,9.30
2022-11-15T23:37:37.376Z,9.30
2022-11-15T23:40:23.627Z,9.40
2022-11-15T23:43:09.516Z,9.40
2022-11-15T23:45:55.942Z,9.40
2022-11-15T23:48:44.847Z,9.40
2022-11-15T23:51:31.223Z,9.50
2022-11-15T23:54:17.792Z,9.50
2022-11-15T23:57:04.306Z,9.50
2022-11-15T23:59:50.476Z,9.50
